• Join FlightAware (Why Join?)
  • Login
  • US Flag 
01:15AM EST


 

Airport Tracker/Info


-or-


 

Live Flight TrackerFlight Track Log ✈ BJS535 ✈ 15-May-2013 ✈ KPDK - KBED

Flight Track Log - Related Links

Times and Time Zones

All times are in EDT time to prevent confusion due to time zone crossing. See the BJS535 flight status page for this flight to view local times or setup timezone preferences in your user account.

Time Position Orientation Groundspeed Altitude Reporting Facility
EDT Latitude Longitude Course Direction KTS MPH feet Rate Location/Type
08:01PM 33.8333 -84.2833 90° East 231 266 2,900  Level Atlanta TRACON
08:02PM 33.8333 -84.2000 90° East 229 264 4,900 1,041 Climbing Atlanta TRACON
08:03PM 33.8500 -84.1333 73° East 238 274 5,000 50 Climbing Atlanta TRACON
08:04PM 33.8500 -84.0500 90° East 230 265 5,000 807 Level Atlanta TRACON
08:05PM 33.8500 -83.9833 90° East 224 258 6,600 1,450 Climbing Atlanta TRACON
08:06PM 33.8167 -83.9000 116° Southeast 271 312 7,900 2,000 Climbing Atlanta TRACON
08:07PM 33.7733 -83.8314 127° Southeast 307 353 10,300 3,081 Climbing Atlanta Center
08:08PM 33.7186 -83.7342 124° Southeast 332 382 13,600 3,350 Climbing Atlanta Center
08:09PM 33.6578 -83.6294 125° Southeast 365 420 17,000 3,378 Climbing Atlanta Center
08:10PM 33.6450 -83.5072 97° East 371 427 20,300 3,174 Climbing Atlanta Center
08:11PM 33.7006 -83.3847 61° Northeast 346 398 23,400 2,800 Climbing Atlanta Center
08:12PM 33.7583 -83.2592 61° Northeast 386 444 25,900 2,319 Climbing Atlanta Center
08:13PM 33.8158 -83.1311 62° Northeast 413 475 28,000 2,182 Climbing Atlanta Center
08:14PM 33.8794 -82.9953 61° Northeast 453 521 30,300 2,150 Climbing Atlanta Center
08:15PM 33.9408 -82.8569 62° Northeast 464 534 32,300 2,017 Climbing Atlanta Center
08:16PM 34.0042 -82.7133 62° Northeast 475 547 34,300 1,750 Climbing Atlanta Center
08:17PM 34.0653 -82.5869 60° Northeast 480 552 35,800 1,587 Climbing Atlanta Center
08:18PM 34.1261 -82.4428 63° Northeast 486 559 37,500 1,650 Climbing Atlanta Center
08:19PM 34.1931 -82.2933 62° Northeast 486 559 39,100 1,664 Climbing Atlanta Center
08:20PM 34.2578 -82.1489 62° Northeast 486 559 40,800 950 Climbing Atlanta Center
08:21PM 34.3264 -82.0064 60° Northeast 486 559 41,000 100 Climbing Atlanta Center
08:22PM 34.4011 -81.8611 58° Northeast 493 567 41,000  Level Atlanta Center
08:23PM 34.4714 -81.7156 60° Northeast 498 573 41,000  Level Atlanta Center
08:24PM 34.5458 -81.5697 58° Northeast 503 579 41,000  Level Atlanta Center
08:25PM 34.6158 -81.4264 59° Northeast 503 579 41,000  Level Atlanta Center
08:26PM 34.6897 -81.2725 60° Northeast 492 566 41,000  Level Atlanta Center
08:27PM 34.7594 -81.1311 59° Northeast 492 566 41,000  Level Atlanta Center
08:28PM 34.8311 -80.9844 59° Northeast 492 566 41,000  Level Atlanta Center
08:30PM 34.9683 -80.6989 60° Northeast 496 571 41,000  Level Washington Center
08:31PM 35.0369 -80.5561 60° Northeast 486 559 41,000  Level Washington Center
08:32PM 35.1075 -80.4108 59° Northeast 486 559 41,000  Level Washington Center
08:33PM 35.1781 -80.2625 60° Northeast 500 575 41,000  Level Washington Center
08:34PM 35.2486 -80.1114 60° Northeast 494 568 41,000  Level Washington Center
08:35PM 35.3158 -79.9831 57° Northeast 494 568 41,000  Level Washington Center
08:36PM 35.3839 -79.8364 60° Northeast 494 568 41,000  Level Washington Center
08:37PM 35.4558 -79.6872 59° Northeast 494 568 41,000  Level Washington Center
08:38PM 35.5256 -79.5375 60° Northeast 494 568 41,000  Level Washington Center
08:39PM 35.5972 -79.3906 59° Northeast 494 568 41,000  Level Washington Center
08:40PM 35.6642 -79.2428 61° Northeast 494 568 41,000  Level Washington Center
08:41PM 35.7311 -79.1000 60° Northeast 494 568 41,000  Level Washington Center
08:42PM 35.8000 -78.9544 60° Northeast 489 563 41,000  Level Washington Center
08:43PM 35.8667 -78.8114 60° Northeast 489 563 41,000  Level Washington Center
08:44PM 35.9353 -78.6628 60° Northeast 489 563 41,000  Level Washington Center
08:45PM 36.0056 -78.5192 59° Northeast 489 563 41,000  Level Washington Center
08:46PM 36.0736 -78.3750 60° Northeast 484 557 41,000  Level Washington Center
08:47PM 36.1417 -78.2336 59° Northeast 479 551 41,000  Level Washington Center
08:48PM 36.2136 -78.0867 59° Northeast 479 551 41,000  Level Washington Center
08:49PM 36.2853 -77.9497 57° Northeast 479 551 41,000  Level Washington Center
08:50PM 36.3833 -77.8367 43° Northeast 479 551 41,000  Level Washington Center
08:51PM 36.4794 -77.7206 44° Northeast 474 545 41,000  Level Washington Center
08:52PM 36.5753 -77.6094 43° Northeast 468 539 41,000  Level Washington Center
08:53PM 36.6750 -77.4981 42° Northeast 468 539 41,000  Level Washington Center
08:54PM 36.7728 -77.3836 43° Northeast 474 545 41,000  Level Washington Center
08:55PM 36.8725 -77.2692 43° Northeast 474 545 41,000  Level Washington Center
08:56PM 36.9678 -77.1569 43° Northeast 474 545 41,000  Level Washington Center
08:57PM 37.0653 -77.0417 43° Northeast 474 545 41,000  Level Washington Center
08:58PM 37.1711 -76.9133 44° Northeast 474 545 41,000  Level Washington Center
08:59PM 37.2683 -76.7950 44° Northeast 474 545 41,000  Level Washington Center
09:00PM 37.3694 -76.6817 42° Northeast 479 551 41,000  Level Washington Center
09:01PM 37.4664 -76.5678 43° Northeast 479 551 41,000  Level Washington Center
09:02PM 37.5633 -76.4539 43° Northeast 474 545 41,000  Level Washington Center
09:03PM 37.6619 -76.3369 43° Northeast 474 545 41,000  Level Washington Center
09:04PM 37.7564 -76.2222 44° Northeast 474 545 41,000  Level Washington Center
09:05PM 37.8467 -76.1125 44° Northeast 480 552 41,000  Level Washington Center
09:06PM 37.9431 -75.9972 43° Northeast 475 547 41,000  Level Washington Center
09:07PM 38.0478 -75.8950 38° Northeast 475 547 41,000  Level Washington Center
09:08PM 38.1583 -75.8056 32° Northeast 475 547 41,000  Level Washington Center
09:09PM 38.2711 -75.7161 32° Northeast 475 547 41,000  Level Washington Center
09:10PM 38.3942 -75.6181 32° Northeast 475 547 41,000  Level Washington Center
09:11PM 38.5089 -75.5306 31° Northeast 475 547 41,000  Level Washington Center
09:12PM 38.6214 -75.4403 32° Northeast 475 547 41,000  Level Washington Center
09:13PM 38.7336 -75.3522 31° Northeast 475 547 41,000  Level Washington Center
09:14PM 38.8461 -75.2692 30° Northeast 475 547 41,000  Level Washington Center
09:15PM 38.9583 -75.1725 34° Northeast 475 547 41,000 -50 Level Washington Center
09:16PM 39.0686 -75.0783 34° Northeast 475 547 40,900  Descending Washington Center
09:17PM 39.1806 -74.9892 32° Northeast 475 547 41,000 50 Climbing Washington Center
09:18PM 39.2928 -74.8969 32° Northeast 475 547 41,000  Level Washington Center
09:19PM 39.4067 -74.8019 33° Northeast 475 547 41,000  Level Washington Center
09:20PM 39.5164 -74.7039 35° Northeast 475 547 41,000  Level Washington Center
09:21PM 39.6197 -74.5894 40° Northeast 482 555 41,000  Level Washington Center
09:22PM 39.7992 -74.3994 39° Northeast 496 571 41,000 -549 Level New York Center
09:23PM 39.9006 -74.2886 40° Northeast 491 565 39,500 -2,118 Descending New York Center
09:24PM 40.0042 -74.1744 40° Northeast 485 558 36,800 -2,579 Descending New York Center
09:25PM 40.1094 -74.0656 38° Northeast 480 552 34,300 -1,916 Descending New York Center
09:26PM 40.2103 -73.9536 40° Northeast 475 547 33,000 -1,636 Descending New York Center
09:27PM 40.3133 -73.8386 40° Northeast 475 547 31,000 -2,000 Descending New York Center
09:28PM 40.4078 -73.7392 39° Northeast 480 552 29,000 -1,896 Descending New York Center
09:31PM 40.6136 -73.5008 41° Northeast 451 519 24,900 -1,569 Descending Boston Center
09:32PM 40.7061 -73.3983 40° Northeast 433 498 23,900 -950 Descending Boston Center
09:33PM 40.8069 -73.2928 38° Northeast 422 486 23,000 -550 Descending Boston Center
09:34PM 40.8953 -73.1897 41° Northeast 422 486 22,800 -850 Descending Boston Center
09:35PM 40.9856 -73.0833 42° Northeast 422 486 21,300 -1,400 Descending Boston Center
09:36PM 41.0736 -72.9769 42° Northeast 422 486 20,000 -650 Descending Boston Center
09:37PM 41.1594 -72.8756 42° Northeast 416 479 20,000  Level Boston Center
09:38PM 41.2597 -72.7964 31° Northeast 416 479 20,000 -500 Level Boston Center
09:39PM 41.3622 -72.7333 25° Northeast 416 479 19,000 -1,500 Descending Boston Center
09:40PM 41.4539 -72.6756 25° Northeast 399 459 17,000 -2,200 Descending Boston Center
09:41PM 41.5644 -72.6011 27° Northeast 399 459 14,600 -2,250 Descending Boston Center
09:42PM 41.6500 -72.5372 29° Northeast 401 461 12,800 -2,122 Descending Boston Center
09:42PM 41.6939 -72.4928 37° Northeast 398 458 11,700 -1,588 Descending Boston Center
09:43PM 41.7461 -72.4344 40° Northeast 394 453 11,000 -689 Descending Boston Center
09:43PM 41.7753 -72.4039 38° Northeast 373 429 11,000  Level Boston Center
09:44PM 41.8189 -72.3564 39° Northeast 380 437 11,000  Level Boston Center
09:44PM 41.8503 -72.3203 41° Northeast 379 436 11,000  Level Boston Center
09:45PM 41.9064 -72.2561 40° Northeast 375 432 11,000  Level Boston Center
09:45PM 41.9272 -72.2308 42° Northeast 349 402 11,000 -500 Level Boston Center
09:46PM 41.9667 -72.1861 40° Northeast 341 392 10,500 -1,082 Descending Boston Center
09:46PM 41.9917 -72.1581 40° Northeast 302 348 9,900 -1,350 Descending Boston Center
09:47PM 42.0581 -72.0794 41° Northeast 299 344 8,700 -1,164 Descending Boston Center
09:48PM 42.1347 -71.9978 38° Northeast 302 348 7,300 -1,173 Descending Boston Center
09:49PM 42.1992 -71.9300 38° Northeast 294 338 6,100 -1,096 Descending Boston Center
09:50PM 42.2553 -71.8650 41° Northeast 289 333 5,200 -357 Descending Boston Center
09:52PM 42.3667 -71.6833 50° Northeast 285 328 5,000 -188 Descending KA90
09:53PM 42.4000 -71.5833 66° East 293 337 4,600 -976 Descending KA90
09:54PM 42.4500 -71.4833 56° Northeast 292 336 3,000 -814 Descending KA90
09:55PM 42.4833 -71.4000 62° Northeast 276 318 3,000  Level KA90
09:56PM 42.5333 -71.3500 36° Northeast 242 278 3,000 -211 Level KA90
09:57PM 42.5833 -71.2833 44° Northeast 245 282 2,600 -508 Descending KA90
09:58PM 42.6333 -71.2167 44° Northeast 235 270 2,000 -300 Descending KA90
09:59PM 42.6167 -71.1667 114° Southeast 171 197 2,000  Level KA90
10:00PM 42.5667 -71.2000 206° Southwest 151 174 2,000 -50 Level KA90
10:01PM 42.5500 -71.2167 216° Southwest 113 130 1,900 -375 Descending KA90
10:02PM 42.5167 -71.2333 200° South 107 123 1,400 -556 Descending KA90